createdAt,value
2019-02-12T05:31:10.489Z,61.58
2019-02-12T05:32:18.738Z,61.58
2019-02-12T05:33:26.779Z,61.37
2019-02-12T05:34:34.812Z,61.13
2019-02-12T05:35:42.834Z,61.06
2019-02-12T05:36:50.563Z,61.42
2019-02-12T05:37:58.658Z,61.88
2019-02-12T05:39:06.860Z,61.74
2019-02-12T05:40:15.108Z,61.88
2019-02-12T05:41:22.818Z,62.04
2019-02-12T05:42:30.838Z,62.45
2019-02-12T05:43:39.222Z,62.28
2019-02-12T05:44:47.296Z,62.24
2019-02-12T05:45:55.524Z,62.89
2019-02-12T05:47:03.968Z,62.04
2019-02-12T05:48:13.597Z,62.17
2019-02-12T05:49:21.402Z,61.11
2019-02-12T05:50:30.973Z,60.84
2019-02-12T05:51:39.275Z,61.32
2019-02-12T05:52:53.704Z,59.88
2019-02-12T05:53:56.793Z,60.48
2019-02-12T05:55:04.949Z,59.72
2019-02-12T05:56:12.853Z,59.06
2019-02-12T05:57:20.372Z,59.35
2019-02-12T05:58:28.380Z,59.45
2019-02-12T05:59:38.312Z,59.15
2019-02-12T06:00:46.066Z,58.62
2019-02-12T06:01:53.750Z,58.39
2019-02-12T06:03:01.680Z,58.33
2019-02-12T06:04:10.143Z,59.41
2019-02-12T06:05:30.218Z,59.01
2019-02-12T06:06:38.577Z,59.39
2019-02-12T06:07:46.651Z,59.32
2019-02-12T06:08:54.945Z,59.64
2019-02-12T06:10:02.864Z,58.93
2019-02-12T06:11:10.845Z,59.13
2019-02-12T06:12:18.935Z,59.49
2019-02-12T06:13:26.933Z,59.74
2019-02-12T06:14:35.064Z,59.58
2019-02-12T06:15:43.140Z,59.31
2019-02-12T06:16:51.132Z,59.51
2019-02-12T06:17:58.865Z,58.73
2019-02-12T06:19:06.741Z,58.80
2019-02-12T06:20:14.409Z,58.04
2019-02-12T06:21:22.173Z,57.92
2019-02-12T06:22:30.385Z,58.14
2019-02-12T06:23:38.646Z,58.30
2019-02-12T06:24:46.263Z,57.01
2019-02-12T06:25:54.463Z,56.96
2019-02-12T06:27:02.563Z,56.85
2019-02-12T06:28:10.562Z,56.99
2019-02-12T06:29:19.449Z,57.48
2019-02-12T06:30:29.929Z,56.54
2019-02-12T06:31:38.309Z,56.38
2019-02-12T06:32:47.242Z,55.85
2019-02-12T06:33:55.408Z,55.27
2019-02-12T06:35:03.680Z,55.65
2019-02-12T06:36:11.570Z,55.54
2019-02-12T06:37:19.298Z,55.72
2019-02-12T06:38:27.678Z,55.43
2019-02-12T06:39:35.800Z,55.70
2019-02-12T06:40:43.579Z,55.18
2019-02-12T06:41:51.359Z,55.57
2019-02-12T06:42:59.163Z,55.22
2019-02-12T06:44:07.387Z,55.31
2019-02-12T06:45:16.393Z,55.05
2019-02-12T06:46:24.066Z,55.05
2019-02-12T06:47:32.155Z,54.57
2019-02-12T06:48:40.150Z,55.00
2019-02-12T06:49:48.078Z,54.85
2019-02-12T06:50:56.135Z,55.62
2019-02-12T06:52:04.134Z,55.88
2019-02-12T06:53:12.868Z,56.10
2019-02-12T06:54:20.985Z,56.02
2019-02-12T06:55:29.130Z,56.25
2019-02-12T06:56:37.382Z,56.27
2019-02-12T06:57:45.423Z,56.31
2019-02-12T06:58:53.574Z,56.58
2019-02-12T07:00:01.482Z,56.85
2019-02-12T07:01:09.361Z,57.00
2019-02-12T07:03:07.738Z,57.20
2019-02-12T07:04:15.833Z,57.05
2019-02-12T07:05:24.132Z,56.94
2019-02-12T07:07:00.282Z,56.56
2019-02-12T07:08:21.898Z,56.53
2019-02-12T07:09:34.426Z,56.40
2019-02-12T07:10:42.447Z,56.61
2019-02-12T07:12:19.465Z,56.44
2019-02-12T07:13:39.248Z,56.48
2019-02-12T07:15:00.701Z,56.58
2019-02-12T07:16:13.467Z,56.43
2019-02-12T07:17:56.787Z,56.35
2019-02-12T07:19:29.965Z,56.68
2019-02-12T07:21:06.288Z,57.01
2019-02-12T07:22:46.420Z,57.21
2019-02-12T07:24:07.932Z,57.17
2019-02-12T07:25:55.110Z,56.91
2019-02-12T07:27:18.858Z,56.99
2019-02-12T07:28:49.527Z,56.89
2019-02-12T07:30:18.989Z,56.75
2019-02-12T07:32:00.434Z,56.75
2019-02-12T07:33:16.090Z,56.70
2019-02-12T07:34:46.702Z,56.87
2019-02-12T07:36:32.548Z,57.00
2019-02-12T07:38:04.397Z,56.87
2019-02-12T07:39:22.259Z,57.05
2019-02-12T07:41:02.005Z,57.15
2019-02-12T07:42:34.340Z,57.29
2019-02-12T07:43:55.740Z,57.25
2019-02-12T07:45:27.491Z,57.23
2019-02-12T07:46:42.768Z,57.32
2019-02-12T07:48:13.499Z,57.46
2019-02-12T07:49:42.175Z,57.53
2019-02-12T07:51:12.994Z,57.48
2019-02-12T07:52:40.961Z,57.53
2019-02-12T07:54:29.360Z,57.88
2019-02-12T07:55:47.651Z,58.14
2019-02-12T07:57:19.594Z,58.24
2019-02-12T07:58:47.288Z,58.30
2019-02-12T08:00:15.057Z,58.35
2019-02-12T08:01:33.266Z,58.24
2019-02-12T08:02:58.299Z,58.09
2019-02-12T08:04:36.387Z,58.05
2019-02-12T08:05:57.539Z,57.91
2019-02-12T08:07:34.198Z,57.18
2019-02-12T08:09:40.106Z,57.14
2019-02-12T08:11:01.247Z,57.19
2019-02-12T08:12:31.617Z,57.28
2019-02-12T08:14:25.354Z,57.62
2019-02-12T08:16:05.139Z,57.44
2019-02-12T08:17:32.426Z,54.76
2019-02-12T08:19:13.798Z,51.94
2019-02-12T08:21:06.886Z,47.66
2019-02-12T08:22:25.254Z,42.89
2019-02-12T08:23:41.170Z,38.00
2019-02-12T08:25:22.406Z,35.92
2019-02-12T08:26:50.133Z,33.61
2019-02-12T08:28:23.521Z,32.02
2019-02-12T08:29:35.964Z,31.39
2019-02-12T08:31:00.323Z,29.60
2019-02-12T08:32:30.727Z,30.12
2019-02-12T08:33:52.026Z,30.89
2019-02-12T08:35:22.940Z,31.69
2019-02-12T08:36:56.376Z,30.98
2019-02-12T08:38:57.818Z,29.85
2019-02-12T08:40:10.603Z,29.67
2019-02-12T08:41:42.750Z,28.29
2019-02-12T08:42:55.269Z,28.66
2019-02-12T08:44:19.946Z,26.86
2019-02-12T08:45:50.569Z,27.76
2019-02-12T08:47:21.016Z,28.45
2019-02-12T08:48:45.747Z,30.13
2019-02-12T08:50:19.758Z,30.99
2019-02-12T08:52:08.536Z,33.05
2019-02-12T08:53:50.578Z,34.00
2019-02-12T08:55:28.133Z,34.09
2019-02-12T08:57:12.284Z,35.38
2019-02-12T08:58:30.465Z,36.57
2019-02-12T08:59:58.296Z,38.33
2019-02-12T09:01:19.555Z,39.46
2019-02-12T09:02:58.775Z,40.46
2019-02-12T09:04:35.745Z,41.20
2019-02-12T09:06:13.253Z,41.40
2019-02-12T09:07:31.629Z,42.20
2019-02-12T09:08:52.739Z,42.49
2019-02-12T09:10:20.782Z,42.65
2019-02-12T09:12:06.808Z,42.87
2019-02-12T09:13:28.165Z,43.11
2019-02-12T09:14:52.992Z,43.37
2019-02-12T09:16:34.488Z,43.50
2019-02-12T09:18:05.297Z,43.66
2019-02-12T09:19:23.620Z,44.01
2019-02-12T09:21:04.278Z,44.28
2019-02-12T09:22:22.235Z,44.31
2019-02-12T09:24:00.392Z,44.36
2019-02-12T09:25:28.054Z,43.96
2019-02-12T09:26:52.372Z,43.60
2019-02-12T09:28:33.413Z,44.20
2019-02-12T09:29:51.684Z,44.67
2019-02-12T09:31:24.970Z,45.00
2019-02-12T09:33:03.089Z,45.29
2019-02-12T09:34:18.287Z,45.67
2019-02-12T09:35:42.309Z,45.95
2019-02-12T09:37:34.284Z,46.43
2019-02-12T09:39:10.144Z,46.49
2019-02-12T09:40:32.411Z,46.43
2019-02-12T09:41:50.487Z,45.89
2019-02-12T09:43:25.506Z,46.02
2019-02-12T09:44:37.861Z,46.24
2019-02-12T09:46:19.870Z,46.71
2019-02-12T09:47:53.362Z,46.94
2019-02-12T09:49:44.354Z,47.51
2019-02-12T09:51:08.505Z,47.81
2019-02-12T09:52:54.674Z,47.21
2019-02-12T09:54:20.661Z,46.39
2019-02-12T09:55:50.913Z,45.48
2019-02-12T09:57:23.840Z,45.33
2019-02-12T09:58:51.801Z,45.04
2019-02-12T10:00:08.279Z,45.05
2019-02-12T10:01:26.731Z,44.53
2019-02-12T10:03:03.410Z,44.50
2019-02-12T10:04:35.190Z,44.68
2019-02-12T10:06:22.102Z,45.10
2019-02-12T10:07:42.507Z,45.42
2019-02-12T10:09:05.190Z,45.32
2019-02-12T10:10:17.995Z,45.43
2019-02-12T10:11:53.047Z,45.59
2019-02-12T10:13:05.444Z,45.69
2019-02-12T10:14:38.298Z,45.66
2019-02-12T10:15:59.598Z,45.70
2019-02-12T10:17:36.616Z,45.95
2019-02-12T10:18:52.208Z,46.25
2019-02-12T10:20:04.596Z,46.47
2019-02-12T10:21:31.986Z,46.69
2019-02-12T10:22:50.385Z,46.75
2019-02-12T10:24:19.981Z,46.93
2019-02-12T10:25:27.995Z,47.10
2019-02-12T10:27:06.015Z,47.25
2019-02-12T10:28:57.581Z,47.55
2019-02-12T10:30:32.195Z,48.12
2019-02-12T10:31:44.139Z,48.75
2019-02-12T10:32:52.036Z,49.23
2019-02-12T10:33:59.549Z,50.28
2019-02-12T10:35:07.236Z,51.00
2019-02-12T10:36:15.031Z,51.85
2019-02-12T10:37:23.101Z,53.08
2019-02-12T10:38:30.672Z,53.63
2019-02-12T10:39:38.465Z,53.79
2019-02-12T10:40:46.359Z,53.82
2019-02-12T10:41:54.121Z,54.53
2019-02-12T10:43:02.002Z,54.73
2019-02-12T10:44:10.039Z,54.84
2019-02-12T10:45:17.955Z,55.80
2019-02-12T10:46:26.084Z,55.87
2019-02-12T10:47:33.611Z,56.43
2019-02-12T10:48:41.400Z,56.44
2019-02-12T10:49:49.243Z,56.26
2019-02-12T10:50:56.975Z,56.21
2019-02-12T10:52:04.607Z,55.81
2019-02-12T10:53:12.616Z,55.58
2019-02-12T10:54:27.758Z,55.30
2019-02-12T10:55:29.870Z,55.20
2019-02-12T10:56:37.795Z,55.13
2019-02-12T10:57:45.650Z,54.93
2019-02-12T10:58:53.447Z,54.68
2019-02-12T11:00:01.248Z,54.31
2019-02-12T11:01:09.243Z,54.07
2019-02-12T11:02:17.257Z,53.78
2019-02-12T11:03:25.011Z,53.27
2019-02-12T11:04:32.911Z,52.96
2019-02-12T11:05:40.739Z,52.44
2019-02-12T11:06:48.387Z,52.15
2019-02-12T11:07:56.172Z,52.24
2019-02-12T11:09:04.998Z,51.70
2019-02-12T11:10:12.584Z,51.30
2019-02-12T11:11:20.479Z,50.06
2019-02-12T11:12:28.572Z,49.59
2019-02-12T11:13:36.285Z,48.87
2019-02-12T11:14:44.320Z,48.00
2019-02-12T11:15:52.028Z,47.82
2019-02-12T11:16:59.520Z,48.01
2019-02-12T11:18:07.008Z,48.21
2019-02-12T11:19:14.583Z,48.28
2019-02-12T11:20:22.082Z,48.74
2019-02-12T11:21:30.167Z,48.90
2019-02-12T11:22:38.140Z,48.94
2019-02-12T11:23:46.257Z,49.13
2019-02-12T11:24:53.912Z,49.26
2019-02-12T11:26:01.661Z,49.23
2019-02-12T11:27:09.416Z,49.14
2019-02-12T11:28:17.460Z,48.74
2019-02-12T11:29:25.210Z,47.71
2019-02-12T11:30:32.942Z,46.68
2019-02-12T11:31:40.651Z,46.08
2019-02-12T11:32:48.233Z,46.26
2019-02-12T11:33:55.678Z,46.40
2019-02-12T11:35:03.774Z,46.05
2019-02-12T11:36:11.615Z,46.22
2019-02-12T11:37:19.122Z,46.15
2019-02-12T11:38:26.780Z,45.77
2019-02-12T11:39:34.800Z,45.54
2019-02-12T11:40:42.836Z,46.11
2019-02-12T11:41:50.339Z,45.96
2019-02-12T11:42:58.374Z,45.49
2019-02-12T11:44:05.951Z,45.34
2019-02-12T11:45:16.539Z,45.41
2019-02-12T11:46:26.006Z,44.71
2019-02-12T11:47:33.766Z,44.30
2019-02-12T11:48:41.719Z,43.48
2019-02-12T11:49:49.688Z,43.68
2019-02-12T11:50:57.402Z,43.85
2019-02-12T11:52:05.163Z,44.35
2019-02-12T11:53:12.988Z,44.68
2019-02-12T11:54:20.857Z,45.13
2019-02-12T11:55:28.812Z,45.13
2019-02-12T11:56:37.147Z,44.75
2019-02-12T11:57:45.235Z,44.25
2019-02-12T11:58:53.029Z,43.77
2019-02-12T12:00:00.862Z,43.93
2019-02-12T12:01:10.384Z,44.26
2019-02-12T12:02:19.714Z,44.52
2019-02-12T12:03:28.029Z,44.10
2019-02-12T12:04:36.285Z,43.35
2019-02-12T12:05:44.210Z,43.26
2019-02-12T12:06:51.830Z,43.71
2019-02-12T12:08:00.309Z,44.20
2019-02-12T12:09:08.201Z,44.68
2019-02-12T12:10:16.489Z,44.95
2019-02-12T12:11:24.302Z,44.79
2019-02-12T12:12:33.621Z,44.66
2019-02-12T12:13:41.206Z,44.22
2019-02-12T12:14:48.787Z,44.17
2019-02-12T12:15:56.419Z,43.95
2019-02-12T12:17:04.197Z,43.85
2019-02-12T12:18:13.522Z,43.55
2019-02-12T12:19:21.140Z,43.56
2019-02-12T12:20:28.719Z,42.68
2019-02-12T12:21:36.638Z,42.24
2019-02-12T12:22:44.528Z,41.77
2019-02-12T12:23:52.826Z,41.07
2019-02-12T12:25:00.647Z,40.93
2019-02-12T12:26:08.493Z,41.07
2019-02-12T12:27:16.231Z,40.54
2019-02-12T12:28:24.137Z,39.32
2019-02-12T12:29:31.879Z,38.11
2019-02-12T12:30:39.503Z,36.45
2019-02-12T12:31:47.215Z,35.61
2019-02-12T12:32:56.463Z,35.07
2019-02-12T12:34:04.290Z,35.02
2019-02-12T12:35:12.902Z,35.11
2019-02-12T12:36:20.697Z,35.60
2019-02-12T12:37:28.846Z,36.34
2019-02-12T12:38:36.418Z,37.52
2019-02-12T12:39:44.053Z,38.51
2019-02-12T12:40:52.659Z,39.70
2019-02-12T12:42:00.825Z,40.93
2019-02-12T12:43:08.590Z,42.85
2019-02-12T12:44:16.235Z,44.35
2019-02-12T12:45:24.443Z,45.30
2019-02-12T12:46:32.075Z,46.28
2019-02-12T12:47:40.343Z,47.21
2019-02-12T12:48:48.591Z,47.55
2019-02-12T12:49:56.623Z,48.01
2019-02-12T12:51:04.829Z,48.72
2019-02-12T12:52:12.978Z,49.67
2019-02-12T12:53:21.307Z,49.95
2019-02-12T12:54:29.006Z,50.30
2019-02-12T12:55:37.226Z,49.61
2019-02-12T12:56:45.447Z,49.03
2019-02-12T12:57:53.631Z,48.20
2019-02-12T12:59:01.690Z,46.65
2019-02-12T13:00:15.207Z,44.90
2019-02-12T13:01:23.355Z,43.58
2019-02-12T13:02:31.247Z,43.00
2019-02-12T13:03:39.312Z,42.77
2019-02-12T13:04:47.509Z,42.63
2019-02-12T13:05:55.225Z,42.69
2019-02-12T13:07:03.934Z,43.80
2019-02-12T13:08:11.899Z,43.78
2019-02-12T13:09:20.082Z,42.69
2019-02-12T13:10:30.341Z,40.73
2019-02-12T13:11:38.890Z,38.79
2019-02-12T13:12:47.107Z,36.95
2019-02-12T13:13:55.052Z,35.31
2019-02-12T13:15:03.357Z,34.30
2019-02-12T13:16:11.120Z,34.12
2019-02-12T13:17:19.317Z,34.17
2019-02-12T13:18:27.059Z,34.58
2019-02-12T13:19:35.305Z,35.71
2019-02-12T13:20:43.271Z,36.86
2019-02-12T13:21:51.013Z,37.86
2019-02-12T13:22:58.683Z,38.53
2019-02-12T13:24:08.231Z,39.06
2019-02-12T13:25:15.844Z,39.79
2019-02-12T13:26:25.024Z,40.40
2019-02-12T13:27:32.957Z,40.79
2019-02-12T13:28:40.703Z,41.47
2019-02-12T13:29:48.931Z,42.14
2019-02-12T13:30:56.820Z,42.82
2019-02-12T13:32:04.856Z,43.26
2019-02-12T13:33:12.953Z,43.70
2019-02-12T13:34:20.991Z,44.03
2019-02-12T13:35:29.358Z,44.52
2019-02-12T13:36:37.551Z,44.90
2019-02-12T13:37:45.914Z,45.23
2019-02-12T13:38:53.914Z,45.34
2019-02-12T13:40:04.551Z,45.36
2019-02-12T13:41:12.804Z,45.34
2019-02-12T13:42:20.652Z,45.40
2019-02-12T13:43:28.532Z,45.29
2019-02-12T13:44:36.526Z,45.00
2019-02-12T13:45:44.513Z,44.78
2019-02-12T13:46:52.741Z,44.65
2019-02-12T13:48:01.322Z,44.63
2019-02-12T13:49:10.235Z,44.63
2019-02-12T13:50:18.545Z,44.73
2019-02-12T13:51:26.837Z,44.78
2019-02-12T13:52:34.578Z,44.75
2019-02-12T13:53:42.600Z,44.83
2019-02-12T13:54:50.442Z,45.05
2019-02-12T13:55:58.618Z,45.17
2019-02-12T13:57:06.417Z,45.32
2019-02-12T13:58:14.402Z,45.23
2019-02-12T13:59:22.089Z,45.18
2019-02-12T14:00:29.982Z,45.23
2019-02-12T14:01:37.824Z,45.29
2019-02-12T14:02:45.568Z,45.41
2019-02-12T14:03:53.974Z,45.72
2019-02-12T14:05:01.956Z,45.88
2019-02-12T14:06:09.935Z,45.87
2019-02-12T14:07:17.451Z,45.87
2019-02-12T14:08:25.428Z,45.86
2019-02-12T14:09:33.296Z,45.88
2019-02-12T14:10:41.305Z,45.89
2019-02-12T14:11:48.843Z,45.96
2019-02-12T14:12:56.797Z,46.10
2019-02-12T14:14:04.943Z,46.14
2019-02-12T14:15:14.319Z,46.21
2019-02-12T14:16:22.280Z,46.29
2019-02-12T14:17:30.505Z,46.33
2019-02-12T14:18:38.665Z,46.56
2019-02-12T14:19:46.864Z,46.65
2019-02-12T14:20:54.815Z,46.89
2019-02-12T14:22:02.920Z,46.95
2019-02-12T14:23:10.800Z,46.94
2019-02-12T14:24:20.122Z,46.89
2019-02-12T14:25:28.423Z,46.89
2019-02-12T14:26:36.315Z,47.09
2019-02-12T14:27:44.299Z,47.14
2019-02-12T14:28:54.156Z,47.17
2019-02-12T14:30:02.518Z,47.53
2019-02-12T14:31:10.817Z,47.75
2019-02-12T14:32:19.048Z,48.03
2019-02-12T14:33:27.095Z,48.32
2019-02-12T14:34:35.035Z,48.51
2019-02-12T14:35:42.961Z,48.62
2019-02-12T14:36:50.920Z,48.72
2019-02-12T14:37:58.525Z,48.94
2019-02-12T14:39:06.911Z,49.00
2019-02-12T14:40:16.570Z,49.25
2019-02-12T14:41:24.412Z,49.30
2019-02-12T14:42:32.381Z,49.42
2019-02-12T14:43:40.790Z,49.42
2019-02-12T14:44:49.185Z,49.59
2019-02-12T14:45:57.111Z,49.59
2019-02-12T14:47:05.636Z,49.90
2019-02-12T14:48:13.167Z,50.02
2019-02-12T14:49:21.466Z,50.12
2019-02-12T14:50:29.204Z,50.11
2019-02-12T14:51:37.184Z,50.06
2019-02-12T14:52:45.285Z,50.07
2019-02-12T14:53:53.088Z,50.24
2019-02-12T14:55:01.115Z,50.29
2019-02-12T14:56:11.375Z,50.21
2019-02-12T14:57:18.791Z,50.17
2019-02-12T14:58:26.633Z,50.04
2019-02-12T14:59:34.599Z,50.01
2019-02-12T15:00:42.499Z,50.08
2019-02-12T15:01:50.719Z,50.13
2019-02-12T15:02:58.325Z,50.22
2019-02-12T15:04:05.824Z,50.26
2019-02-12T15:05:13.962Z,50.25
2019-02-12T15:06:22.031Z,50.24
2019-02-12T15:07:30.260Z,50.19
2019-02-12T15:08:37.948Z,50.23
2019-02-12T15:09:46.324Z,50.28
2019-02-12T15:10:53.766Z,50.38
2019-02-12T15:12:02.001Z,50.40
2019-02-12T15:13:10.060Z,50.40
2019-02-12T15:14:19.910Z,50.48
2019-02-12T15:15:28.213Z,50.50
2019-02-12T15:16:36.235Z,50.51
2019-02-12T15:17:43.952Z,50.50
2019-02-12T15:18:51.932Z,50.51
2019-02-12T15:19:59.497Z,50.51
2019-02-12T15:21:07.646Z,50.54
2019-02-12T15:22:15.437Z,50.68
2019-02-12T15:23:23.682Z,50.62
2019-02-12T15:24:31.704Z,50.66
2019-02-12T15:25:42.039Z,50.65
2019-02-12T15:26:49.659Z,50.60
2019-02-12T15:27:57.735Z,50.70
2019-02-12T15:29:05.701Z,50.90
2019-02-12T15:30:17.857Z,50.94
2019-02-12T15:31:25.581Z,51.06
2019-02-12T15:32:33.915Z,51.24
2019-02-12T15:33:42.054Z,51.30
2019-02-12T15:34:50.405Z,51.48
2019-02-12T15:35:58.511Z,51.40
2019-02-12T15:37:06.472Z,51.69
2019-02-12T15:38:14.310Z,51.67
2019-02-12T15:39:22.243Z,51.81
2019-02-12T15:40:30.072Z,51.77
2019-02-12T15:41:38.021Z,52.07
2019-02-12T15:42:45.989Z,52.20
2019-02-12T15:43:53.641Z,52.25
2019-02-12T15:45:01.659Z,52.58
2019-02-12T15:46:09.913Z,52.56
2019-02-12T15:47:17.851Z,52.57
2019-02-12T15:48:26.364Z,52.74
2019-02-12T15:49:34.627Z,52.66
2019-02-12T15:50:42.683Z,52.78
2019-02-12T15:51:51.049Z,52.84
2019-02-12T15:52:59.051Z,52.78
2019-02-12T15:54:07.602Z,52.82
2019-02-12T15:55:16.318Z,52.78
2019-02-12T15:56:24.474Z,52.96
2019-02-12T15:57:32.963Z,52.94
2019-02-12T15:58:40.958Z,52.86
2019-02-12T15:59:49.210Z,52.90
2019-02-12T16:00:57.052Z,52.92
2019-02-12T16:02:04.737Z,52.81
2019-02-12T16:03:12.451Z,52.90
2019-02-12T16:04:21.663Z,53.13
2019-02-12T16:05:30.694Z,53.25
2019-02-12T16:06:40.292Z,53.37
2019-02-12T16:07:48.909Z,53.48
2019-02-12T16:08:56.599Z,53.72
2019-02-12T16:10:05.934Z,53.73
2019-02-12T16:11:14.029Z,53.88
2019-02-12T16:12:22.108Z,53.96
2019-02-12T16:13:30.369Z,53.96
2019-02-12T16:14:40.025Z,53.93
2019-02-12T16:15:48.378Z,53.99
2019-02-12T16:16:57.316Z,54.15
2019-02-12T16:18:05.667Z,54.28
2019-02-12T16:19:14.202Z,54.16
2019-02-12T16:20:23.062Z,54.21
2019-02-12T16:21:31.499Z,54.42
2019-02-12T16:22:39.747Z,54.43
2019-02-12T16:23:47.796Z,54.39
2019-02-12T16:24:56.459Z,54.33
2019-02-12T16:26:04.351Z,54.27
2019-02-12T16:27:12.595Z,54.15
2019-02-12T16:28:20.482Z,54.06
2019-02-12T16:29:28.443Z,54.02
2019-02-12T16:30:36.594Z,53.93
2019-02-12T16:31:44.679Z,53.87
2019-02-12T16:32:52.865Z,53.76
2019-02-12T16:34:00.638Z,53.69
2019-02-12T16:35:14.400Z,53.56
2019-02-12T16:36:22.802Z,53.36
2019-02-12T16:37:30.895Z,53.26
2019-02-12T16:38:40.389Z,53.17
2019-02-12T16:39:48.331Z,53.06
2019-02-12T16:40:56.225Z,53.00
2019-02-12T16:42:04.151Z,52.88
2019-02-12T16:43:12.147Z,52.82
2019-02-12T16:44:20.225Z,52.80
2019-02-12T16:45:44.834Z,52.80
2019-02-12T16:46:52.574Z,52.73
2019-02-12T16:48:01.217Z,52.63
2019-02-12T16:49:09.034Z,52.54
2019-02-12T16:50:16.938Z,52.46
2019-02-12T16:51:24.991Z,52.33
2019-02-12T16:52:33.130Z,52.26
2019-02-12T16:53:41.275Z,52.15
2019-02-12T16:54:51.176Z,52.02
2019-02-12T16:55:59.137Z,52.07
2019-02-12T16:57:06.921Z,52.09
2019-02-12T16:58:14.998Z,52.03
2019-02-12T16:59:22.986Z,51.94
2019-02-12T17:00:30.946Z,51.90
2019-02-12T17:01:38.601Z,51.93
2019-02-12T17:02:46.977Z,51.87
2019-02-12T17:03:56.178Z,51.66
2019-02-12T17:05:07.319Z,51.69
2019-02-12T17:06:15.160Z,51.74
2019-02-12T17:07:23.008Z,51.71
2019-02-12T17:08:30.939Z,51.73
2019-02-12T17:09:38.937Z,51.77
2019-02-12T17:10:46.889Z,51.73
2019-02-12T17:11:54.925Z,51.76
2019-02-12T17:13:02.977Z,51.74
2019-02-12T17:14:10.815Z,51.77
2019-02-12T17:15:18.779Z,51.72
2019-02-12T17:16:26.567Z,51.71
2019-02-12T17:17:35.019Z,51.75
2019-02-12T17:18:43.529Z,51.89
2019-02-12T17:19:51.214Z,51.98
2019-02-12T17:20:59.210Z,51.99
2019-02-12T17:22:06.952Z,52.01
2019-02-12T17:23:14.845Z,52.08
2019-02-12T17:24:22.926Z,52.16
2019-02-12T17:25:30.521Z,52.24
2019-02-12T17:26:39.018Z,52.26
2019-02-12T17:27:48.103Z,52.29
2019-02-12T17:28:56.127Z,52.27
2019-02-12T17:30:05.342Z,52.32
2019-02-12T17:31:13.009Z,52.29
2019-02-12T17:32:21.029Z,52.30
2019-02-12T17:33:29.064Z,52.33
2019-02-12T17:34:36.932Z,52.32
2019-02-12T17:35:45.124Z,52.40
2019-02-12T17:36:52.750Z,52.33
2019-02-12T17:38:00.393Z,52.41
2019-02-12T17:39:08.821Z,52.60
2019-02-12T17:40:18.562Z,52.60
2019-02-12T17:41:26.358Z,52.74
2019-02-12T17:42:34.162Z,52.75
2019-02-12T17:43:41.746Z,52.73
2019-02-12T17:44:49.811Z,52.79
2019-02-12T17:45:57.616Z,52.77
2019-02-12T17:47:06.556Z,52.68
2019-02-12T17:48:14.965Z,52.71
2019-02-12T17:49:23.215Z,52.65
2019-02-12T17:50:31.167Z,52.73
2019-02-12T17:51:39.093Z,52.68
2019-02-12T17:52:47.284Z,52.76
2019-02-12T17:53:54.944Z,52.76
2019-02-12T17:55:02.906Z,52.77
2019-02-12T17:56:10.884Z,52.72
2019-02-12T17:57:19.344Z,52.76
2019-02-12T17:58:27.433Z,52.84
2019-02-12T17:59:35.399Z,52.90
2019-02-12T18:00:45.459Z,52.93
2019-02-12T18:01:53.635Z,52.97
2019-02-12T18:03:01.531Z,52.92
2019-02-12T18:04:09.550Z,52.97
2019-02-12T18:05:17.649Z,52.95
2019-02-12T18:06:25.651Z,53.00
2019-02-12T18:07:33.781Z,53.04
2019-02-12T18:08:41.773Z,53.06
2019-02-12T18:09:49.671Z,53.14
2019-02-12T18:11:00.311Z,53.23
2019-02-12T18:12:09.876Z,53.18
2019-02-12T18:13:18.118Z,53.12
2019-02-12T18:14:26.093Z,53.05
2019-02-12T18:15:34.185Z,53.05
2019-02-12T18:16:42.443Z,53.06
2019-02-12T18:17:50.560Z,53.07
2019-02-12T18:18:59.077Z,53.07
2019-02-12T18:20:10.627Z,53.16
2019-02-12T18:21:18.775Z,53.24
2019-02-12T18:22:26.987Z,53.22
2019-02-12T18:23:35.487Z,53.22
2019-02-12T18:24:45.813Z,53.16
2019-02-12T18:25:54.031Z,53.12
2019-02-12T18:27:02.051Z,53.04
2019-02-12T18:28:10.130Z,53.04
2019-02-12T18:29:18.598Z,53.07
2019-02-12T18:30:26.416Z,53.04
2019-02-12T18:31:34.632Z,53.02
2019-02-12T18:32:43.299Z,52.96
2019-02-12T18:33:51.725Z,52.95
2019-02-12T18:34:59.920Z,52.99
2019-02-12T18:36:07.809Z,52.98
2019-02-12T18:37:16.204Z,52.98
2019-02-12T18:38:24.233Z,52.96
2019-02-12T18:39:32.307Z,52.95
2019-02-12T18:40:40.695Z,52.91
2019-02-12T18:41:49.146Z,53.06
2019-02-12T18:42:57.177Z,53.11
2019-02-12T18:44:05.364Z,53.15
2019-02-12T18:45:19.562Z,53.18
2019-02-12T18:46:28.556Z,53.16
2019-02-12T18:47:36.569Z,53.07
2019-02-12T18:48:46.278Z,52.99
2019-02-12T18:49:54.636Z,53.05
2019-02-12T18:51:04.630Z,52.96
2019-02-12T18:52:13.759Z,52.92
2019-02-12T18:53:21.886Z,52.86
2019-02-12T18:54:30.256Z,52.87
2019-02-12T18:55:38.053Z,52.95
2019-02-12T18:56:46.309Z,52.88
2019-02-12T18:57:54.913Z,52.77
2019-02-12T18:59:02.937Z,52.88
2019-02-12T19:00:20.913Z,52.93
2019-02-12T19:01:28.938Z,52.94
2019-02-12T19:02:37.040Z,53.17
2019-02-12T19:03:45.651Z,53.11
2019-02-12T19:04:55.400Z,53.03
2019-02-12T19:06:03.930Z,52.93
2019-02-12T19:07:12.960Z,52.89
2019-02-12T19:08:20.926Z,52.81
2019-02-12T19:09:28.770Z,52.85
2019-02-12T19:10:36.665Z,52.74
2019-02-12T19:11:53.967Z,52.68
2019-02-12T19:12:56.265Z,52.59
2019-02-12T19:14:05.024Z,52.64
2019-02-12T19:15:18.154Z,52.61
2019-02-12T19:16:26.689Z,52.70
2019-02-12T19:17:35.813Z,52.87
2019-02-12T19:18:44.208Z,53.10
2019-02-12T19:19:53.182Z,52.81
2019-02-12T19:21:03.636Z,52.79
2019-02-12T19:22:12.279Z,52.80
2019-02-12T19:23:23.692Z,52.78
2019-02-12T19:24:32.921Z,52.85
2019-02-12T19:25:41.456Z,52.86
2019-02-12T19:26:50.179Z,52.86
2019-02-12T19:27:58.369Z,52.89
2019-02-12T19:29:08.177Z,52.92
2019-02-12T19:30:18.952Z,52.90
2019-02-12T19:31:28.468Z,52.83
2019-02-12T19:32:38.422Z,52.82
2019-02-12T19:33:46.251Z,52.77
2019-02-12T19:34:54.309Z,52.82
2019-02-12T19:36:03.752Z,52.88
2019-02-12T19:37:11.814Z,53.03
2019-02-12T19:38:20.058Z,53.03
2019-02-12T19:39:29.531Z,53.08
2019-02-12T19:40:38.505Z,53.08
2019-02-12T19:41:47.219Z,53.28
2019-02-12T19:42:55.773Z,53.23
2019-02-12T19:44:06.104Z,53.19
2019-02-12T19:45:18.743Z,53.28
2019-02-12T19:46:27.001Z,53.27
2019-02-12T19:47:35.790Z,53.28
2019-02-12T19:48:43.785Z,53.27
2019-02-12T19:49:51.946Z,53.35
2019-02-12T19:51:00.346Z,53.36
2019-02-12T19:52:09.256Z,53.43
2019-02-12T19:53:17.922Z,53.44
2019-02-12T19:54:26.069Z,53.53
2019-02-12T19:55:34.380Z,53.64
2019-02-12T19:56:42.716Z,53.65
2019-02-12T19:57:50.570Z,53.67
2019-02-12T19:58:58.654Z,53.69
2019-02-12T20:00:19.488Z,53.74
2019-02-12T20:01:27.100Z,53.74
2019-02-12T20:02:38.415Z,53.79
2019-02-12T20:03:47.488Z,53.81
2019-02-12T20:04:58.223Z,53.79
2019-02-12T20:06:06.870Z,53.77
2019-02-12T20:07:19.518Z,53.79
2019-02-12T20:08:28.289Z,53.87
2019-02-12T20:09:36.744Z,53.83
2019-02-12T20:10:45.161Z,53.82
2019-02-12T20:11:54.351Z,53.83
2019-02-12T20:13:05.620Z,53.82
2019-02-12T20:14:20.227Z,53.87
2019-02-12T20:15:33.437Z,53.82
2019-02-12T20:16:42.882Z,53.85
2019-02-12T20:17:51.244Z,53.81
2019-02-12T20:19:00.275Z,53.79
2019-02-12T20:20:12.311Z,53.80
2019-02-12T20:21:21.149Z,53.87
2019-02-12T20:22:30.427Z,53.89
2019-02-12T20:23:39.212Z,53.89
2019-02-12T20:24:48.191Z,53.93
2019-02-12T20:25:56.554Z,53.89
2019-02-12T20:27:06.726Z,53.91
2019-02-12T20:28:14.697Z,54.02
2019-02-12T20:29:23.600Z,54.04
2019-02-12T20:30:32.278Z,54.01
2019-02-12T20:31:41.090Z,53.98
2019-02-12T20:32:49.455Z,53.93
2019-02-12T20:33:57.427Z,53.92
2019-02-12T20:35:07.793Z,53.90
2019-02-12T20:36:15.932Z,53.89
2019-02-12T20:37:23.925Z,53.93
2019-02-12T20:38:33.478Z,53.97
2019-02-12T20:39:44.192Z,54.02
2019-02-12T20:41:51.683Z,53.98
2019-02-12T20:43:01.114Z,54.01
2019-02-12T20:44:10.241Z,54.06
2019-02-12T20:45:21.064Z,54.08
2019-02-12T20:46:30.663Z,54.14
2019-02-12T20:47:39.791Z,54.20
2019-02-12T20:48:49.716Z,54.25
2019-02-12T20:49:58.416Z,54.25
2019-02-12T20:51:06.263Z,54.27
2019-02-12T20:52:14.232Z,54.30
2019-02-12T20:53:22.813Z,54.30
2019-02-12T20:54:31.690Z,54.34
2019-02-12T20:55:41.487Z,54.35
2019-02-12T20:56:51.329Z,54.38
2019-02-12T20:58:00.644Z,54.47
2019-02-12T20:59:09.201Z,54.54
2019-02-12T21:00:22.321Z,54.67
2019-02-12T21:01:30.284Z,54.72
2019-02-12T21:02:39.611Z,54.65